sensor_id;sensor_type;location;lat;lon;timestamp;temperature;humidity
18218;DHT22;9234;49.344;11.120;2022-10-22T00:01:28;13.20;99.90
18218;DHT22;9234;49.344;11.120;2022-10-22T00:03:56;13.20;99.90
18218;DHT22;9234;49.344;11.120;2022-10-22T00:06:24;13.20;99.90
18218;DHT22;9234;49.344;11.120;2022-10-22T00:08:53;13.20;99.90
18218;DHT22;9234;49.344;11.120;2022-10-22T00:11:21;13.20;99.90
18218;DHT22;9234;49.344;11.120;2022-10-22T00:13:49;13.20;99.90
18218;DHT22;9234;49.344;11.120;2022-10-22T00:16:18;13.20;99.90
18218;DHT22;9234;49.344;11.120;2022-10-22T00:18:47;13.20;99.90
18218;DHT22;9234;49.344;11.120;2022-10-22T00:21:16;13.20;99.90
18218;DHT22;9234;49.344;11.120;2022-10-22T00:23:44;13.20;99.90
18218;DHT22;9234;49.344;11.120;2022-10-22T00:26:12;13.20;99.90
18218;DHT22;9234;49.344;11.120;2022-10-22T00:28:41;13.30;99.90
18218;DHT22;9234;49.344;11.120;2022-10-22T00:31:09;13.30;99.90
18218;DHT22;9234;49.344;11.120;2022-10-22T00:33:37;13.30;99.90
18218;DHT22;9234;49.344;11.120;2022-10-22T00:36:07;13.30;99.90
18218;DHT22;9234;49.344;11.120;2022-10-22T00:38:36;13.30;99.90
18218;DHT22;9234;49.344;11.120;2022-10-22T00:41:04;13.30;99.90
18218;DHT22;9234;49.344;11.120;2022-10-22T00:43:33;13.30;99.90
18218;DHT22;9234;49.344;11.120;2022-10-22T00:46:19;13.30;99.90
18218;DHT22;9234;49.344;11.120;2022-10-22T00:48:48;13.30;99.90
18218;DHT22;9234;49.344;11.120;2022-10-22T00:51:19;13.30;99.90
18218;DHT22;9234;49.344;11.120;2022-10-22T00:53:54;13.40;99.90
18218;DHT22;9234;49.344;11.120;2022-10-22T00:56:27;13.40;99.90
18218;DHT22;9234;49.344;11.120;2022-10-22T00:58:57;13.40;99.90
18218;DHT22;9234;49.344;11.120;2022-10-22T01:01:29;13.40;99.90
18218;DHT22;9234;49.344;11.120;2022-10-22T01:03:59;13.50;99.90
18218;DHT22;9234;49.344;11.120;2022-10-22T01:06:30;13.50;99.90
18218;DHT22;9234;49.344;11.120;2022-10-22T01:09:06;13.50;99.90
18218;DHT22;9234;49.344;11.120;2022-10-22T01:11:53;13.60;99.90
18218;DHT22;9234;49.344;11.120;2022-10-22T01:14:35;13.60;99.90
18218;DHT22;9234;49.344;11.120;2022-10-22T01:17:16;13.60;99.90
18218;DHT22;9234;49.344;11.120;2022-10-22T01:20:01;13.60;99.90
18218;DHT22;9234;49.344;11.120;2022-10-22T01:22:41;13.60;99.90
18218;DHT22;9234;49.344;11.120;2022-10-22T01:25:16;13.70;99.90
18218;DHT22;9234;49.344;11.120;2022-10-22T01:27:58;13.70;99.90
18218;DHT22;9234;49.344;11.120;2022-10-22T01:30:36;13.80;99.90
18218;DHT22;9234;49.344;11.120;2022-10-22T01:33:07;13.80;99.90
18218;DHT22;9234;49.344;11.120;2022-10-22T01:35:43;13.80;99.90
18218;DHT22;9234;49.344;11.120;2022-10-22T01:38:14;13.90;99.90
18218;DHT22;9234;49.344;11.120;2022-10-22T01:40:46;13.90;99.90
18218;DHT22;9234;49.344;11.120;2022-10-22T01:43:15;13.90;99.90
18218;DHT22;9234;49.344;11.120;2022-10-22T01:45:47;13.90;99.90
18218;DHT22;9234;49.344;11.120;2022-10-22T01:48:33;13.90;99.90
18218;DHT22;9234;49.344;11.120;2022-10-22T01:51:28;13.90;99.90
18218;DHT22;9234;49.344;11.120;2022-10-22T01:54:13;13.90;99.90
18218;DHT22;9234;49.344;11.120;2022-10-22T01:56:55;14.00;99.90
18218;DHT22;9234;49.344;11.120;2022-10-22T01:59:40;14.00;99.90
18218;DHT22;9234;49.344;11.120;2022-10-22T02:02:25;14.00;99.90
18218;DHT22;9234;49.344;11.120;2022-10-22T02:05:02;14.00;99.90
18218;DHT22;9234;49.344;11.120;2022-10-22T02:07:37;14.00;99.90
18218;DHT22;9234;49.344;11.120;2022-10-22T02:10:09;14.00;99.90
18218;DHT22;9234;49.344;11.120;2022-10-22T02:12:41;14.00;99.90
18218;DHT22;9234;49.344;11.120;2022-10-22T02:15:11;14.00;99.90
18218;DHT22;9234;49.344;11.120;2022-10-22T02:17:44;14.00;99.90
18218;DHT22;9234;49.344;11.120;2022-10-22T02:20:16;14.00;99.90
18218;DHT22;9234;49.344;11.120;2022-10-22T02:22:47;14.00;99.90
18218;DHT22;9234;49.344;11.120;2022-10-22T02:25:16;14.00;99.90
18218;DHT22;9234;49.344;11.120;2022-10-22T02:27:48;14.00;99.90
18218;DHT22;9234;49.344;11.120;2022-10-22T02:30:21;14.00;99.90
18218;DHT22;9234;49.344;11.120;2022-10-22T02:32:55;14.00;99.90
18218;DHT22;9234;49.344;11.120;2022-10-22T02:35:27;14.00;99.90
18218;DHT22;9234;49.344;11.120;2022-10-22T02:37:57;14.00;99.90
18218;DHT22;9234;49.344;11.120;2022-10-22T02:40:26;14.00;99.90
18218;DHT22;9234;49.344;11.120;2022-10-22T02:42:57;14.00;99.90
18218;DHT22;9234;49.344;11.120;2022-10-22T02:45:26;14.00;99.90
18218;DHT22;9234;49.344;11.120;2022-10-22T02:47:56;14.00;99.90
18218;DHT22;9234;49.344;11.120;2022-10-22T02:50:24;14.00;99.90
18218;DHT22;9234;49.344;11.120;2022-10-22T02:52:52;13.90;99.90
18218;DHT22;9234;49.344;11.120;2022-10-22T02:55:21;14.00;99.90
18218;DHT22;9234;49.344;11.120;2022-10-22T02:57:49;14.00;99.90
18218;DHT22;9234;49.344;11.120;2022-10-22T03:00:17;14.00;99.90
18218;DHT22;9234;49.344;11.120;2022-10-22T03:02:46;13.90;99.90
18218;DHT22;9234;49.344;11.120;2022-10-22T03:05:15;13.90;99.90
18218;DHT22;9234;49.344;11.120;2022-10-22T03:07:44;13.90;99.90
18218;DHT22;9234;49.344;11.120;2022-10-22T03:10:12;13.90;99.90
18218;DHT22;9234;49.344;11.120;2022-10-22T03:12:40;13.90;99.90
18218;DHT22;9234;49.344;11.120;2022-10-22T03:15:09;13.90;99.90
18218;DHT22;9234;49.344;11.120;2022-10-22T03:17:37;13.90;99.90
18218;DHT22;9234;49.344;11.120;2022-10-22T03:20:06;13.90;99.90
18218;DHT22;9234;49.344;11.120;2022-10-22T03:22:38;13.90;99.90
18218;DHT22;9234;49.344;11.120;2022-10-22T03:25:12;13.90;99.90
18218;DHT22;9234;49.344;11.120;2022-10-22T03:27:43;13.90;99.90
18218;DHT22;9234;49.344;11.120;2022-10-22T03:30:13;13.90;99.90
18218;DHT22;9234;49.344;11.120;2022-10-22T03:32:41;13.90;99.90
18218;DHT22;9234;49.344;11.120;2022-10-22T03:35:09;13.90;99.90
18218;DHT22;9234;49.344;11.120;2022-10-22T03:37:39;13.80;99.90
18218;DHT22;9234;49.344;11.120;2022-10-22T03:40:09;13.80;99.90
18218;DHT22;9234;49.344;11.120;2022-10-22T03:42:39;13.80;99.90
18218;DHT22;9234;49.344;11.120;2022-10-22T03:45:09;13.80;99.90
18218;DHT22;9234;49.344;11.120;2022-10-22T03:47:38;13.80;99.90
18218;DHT22;9234;49.344;11.120;2022-10-22T03:50:08;13.80;99.90
18218;DHT22;9234;49.344;11.120;2022-10-22T03:52:39;13.80;99.90
18218;DHT22;9234;49.344;11.120;2022-10-22T03:55:08;13.80;99.90
18218;DHT22;9234;49.344;11.120;2022-10-22T03:57:37;13.80;99.90
18218;DHT22;9234;49.344;11.120;2022-10-22T04:00:07;13.80;99.90
18218;DHT22;9234;49.344;11.120;2022-10-22T04:02:37;13.80;99.90
18218;DHT22;9234;49.344;11.120;2022-10-22T04:05:06;13.80;99.90
18218;DHT22;9234;49.344;11.120;2022-10-22T04:07:34;13.70;99.90
18218;DHT22;9234;49.344;11.120;2022-10-22T04:10:05;13.80;99.90
18218;DHT22;9234;49.344;11.120;2022-10-22T04:12:34;13.80;99.90
18218;DHT22;9234;49.344;11.120;2022-10-22T04:15:02;13.70;99.90
18218;DHT22;9234;49.344;11.120;2022-10-22T04:17:34;13.70;99.90
18218;DHT22;9234;49.344;11.120;2022-10-22T04:20:04;13.70;99.90
18218;DHT22;9234;49.344;11.120;2022-10-22T04:22:33;13.70;99.90
18218;DHT22;9234;49.344;11.120;2022-10-22T04:25:02;13.70;99.90
18218;DHT22;9234;49.344;11.120;2022-10-22T04:27:33;13.70;99.90
18218;DHT22;9234;49.344;11.120;2022-10-22T04:30:03;13.70;99.90
18218;DHT22;9234;49.344;11.120;2022-10-22T04:32:33;13.70;99.90
18218;DHT22;9234;49.344;11.120;2022-10-22T04:35:01;13.70;99.90
18218;DHT22;9234;49.344;11.120;2022-10-22T04:37:29;13.70;99.90
18218;DHT22;9234;49.344;11.120;2022-10-22T04:39:58;13.70;99.90
18218;DHT22;9234;49.344;11.120;2022-10-22T04:42:28;13.70;99.90
18218;DHT22;9234;49.344;11.120;2022-10-22T04:44:56;13.70;99.90
18218;DHT22;9234;49.344;11.120;2022-10-22T04:47:24;13.70;99.90
18218;DHT22;9234;49.344;11.120;2022-10-22T04:49:52;13.70;99.90
18218;DHT22;9234;49.344;11.120;2022-10-22T04:52:20;13.70;99.90
18218;DHT22;9234;49.344;11.120;2022-10-22T04:54:48;13.70;99.90
18218;DHT22;9234;49.344;11.120;2022-10-22T04:57:17;13.60;99.90
18218;DHT22;9234;49.344;11.120;2022-10-22T04:59:46;13.60;99.90
18218;DHT22;9234;49.344;11.120;2022-10-22T05:02:14;13.60;99.90
18218;DHT22;9234;49.344;11.120;2022-10-22T05:04:43;13.60;99.90
18218;DHT22;9234;49.344;11.120;2022-10-22T05:07:11;13.60;99.90
18218;DHT22;9234;49.344;11.120;2022-10-22T05:09:39;13.60;99.90
18218;DHT22;9234;49.344;11.120;2022-10-22T05:12:07;13.60;99.90
18218;DHT22;9234;49.344;11.120;2022-10-22T05:14:35;13.60;99.90
18218;DHT22;9234;49.344;11.120;2022-10-22T05:17:11;13.60;99.90
18218;DHT22;9234;49.344;11.120;2022-10-22T05:19:40;13.50;99.90
18218;DHT22;9234;49.344;11.120;2022-10-22T05:22:08;13.60;99.90
18218;DHT22;9234;49.344;11.120;2022-10-22T05:24:36;13.50;99.90
18218;DHT22;9234;49.344;11.120;2022-10-22T05:27:05;13.50;99.90
18218;DHT22;9234;49.344;11.120;2022-10-22T05:29:33;13.40;99.90
18218;DHT22;9234;49.344;11.120;2022-10-22T05:32:01;13.40;99.90
18218;DHT22;9234;49.344;11.120;2022-10-22T05:34:31;13.40;99.90
18218;DHT22;9234;49.344;11.120;2022-10-22T05:37:01;13.30;99.90
18218;DHT22;9234;49.344;11.120;2022-10-22T05:39:30;13.30;99.90
18218;DHT22;9234;49.344;11.120;2022-10-22T05:42:02;13.20;99.90
18218;DHT22;9234;49.344;11.120;2022-10-22T05:44:30;13.20;99.90
18218;DHT22;9234;49.344;11.120;2022-10-22T05:46:59;13.10;99.90
18218;DHT22;9234;49.344;11.120;2022-10-22T05:49:27;13.10;99.90
18218;DHT22;9234;49.344;11.120;2022-10-22T05:51:57;13.00;99.90
18218;DHT22;9234;49.344;11.120;2022-10-22T05:54:25;13.00;99.90
18218;DHT22;9234;49.344;11.120;2022-10-22T05:56:53;13.00;99.90
18218;DHT22;9234;49.344;11.120;2022-10-22T05:59:21;13.00;99.90
18218;DHT22;9234;49.344;11.120;2022-10-22T06:01:49;12.90;99.90
18218;DHT22;9234;49.344;11.120;2022-10-22T06:04:18;12.90;99.90
18218;DHT22;9234;49.344;11.120;2022-10-22T06:06:47;12.90;99.90
18218;DHT22;9234;49.344;11.120;2022-10-22T06:09:22;12.90;99.90
18218;DHT22;9234;49.344;11.120;2022-10-22T06:11:53;12.90;99.90
18218;DHT22;9234;49.344;11.120;2022-10-22T06:14:23;12.80;99.90
18218;DHT22;9234;49.344;11.120;2022-10-22T06:16:52;12.80;99.90
18218;DHT22;9234;49.344;11.120;2022-10-22T06:19:21;12.80;99.90
18218;DHT22;9234;49.344;11.120;2022-10-22T06:21:51;12.80;99.90
18218;DHT22;9234;49.344;11.120;2022-10-22T06:24:21;12.80;99.90
18218;DHT22;9234;49.344;11.120;2022-10-22T06:26:50;12.80;99.90
18218;DHT22;9234;49.344;11.120;2022-10-22T06:29:19;12.80;99.90
18218;DHT22;9234;49.344;11.120;2022-10-22T06:31:47;12.80;99.90
18218;DHT22;9234;49.344;11.120;2022-10-22T06:34:16;12.80;99.90
18218;DHT22;9234;49.344;11.120;2022-10-22T06:36:45;12.80;99.90
18218;DHT22;9234;49.344;11.120;2022-10-22T06:39:15;12.80;99.90
18218;DHT22;9234;49.344;11.120;2022-10-22T06:41:45;12.80;99.90
18218;DHT22;9234;49.344;11.120;2022-10-22T06:44:19;12.80;99.90
18218;DHT22;9234;49.344;11.120;2022-10-22T06:46:49;12.90;99.90
18218;DHT22;9234;49.344;11.120;2022-10-22T06:49:19;12.90;99.90
18218;DHT22;9234;49.344;11.120;2022-10-22T06:51:49;12.90;99.90
18218;DHT22;9234;49.344;11.120;2022-10-22T06:54:18;12.90;99.90
18218;DHT22;9234;49.344;11.120;2022-10-22T06:56:48;12.90;99.90
18218;DHT22;9234;49.344;11.120;2022-10-22T06:59:16;13.00;99.90
18218;DHT22;9234;49.344;11.120;2022-10-22T07:01:44;13.00;99.90
18218;DHT22;9234;49.344;11.120;2022-10-22T07:04:13;13.00;99.90
18218;DHT22;9234;49.344;11.120;2022-10-22T07:06:41;13.00;99.90
18218;DHT22;9234;49.344;11.120;2022-10-22T07:09:09;13.10;99.90
18218;DHT22;9234;49.344;11.120;2022-10-22T07:11:40;13.10;99.90
18218;DHT22;9234;49.344;11.120;2022-10-22T07:14:10;13.20;99.90
18218;DHT22;9234;49.344;11.120;2022-10-22T07:16:40;13.20;99.90
18218;DHT22;9234;49.344;11.120;2022-10-22T07:19:12;13.20;99.90
18218;DHT22;9234;49.344;11.120;2022-10-22T07:21:40;13.30;99.90
18218;DHT22;9234;49.344;11.120;2022-10-22T07:24:08;13.40;99.90
18218;DHT22;9234;49.344;11.120;2022-10-22T07:26:37;13.40;99.90
18218;DHT22;9234;49.344;11.120;2022-10-22T07:29:05;13.50;99.90
18218;DHT22;9234;49.344;11.120;2022-10-22T07:31:35;13.50;99.90
18218;DHT22;9234;49.344;11.120;2022-10-22T07:34:03;13.60;99.90
18218;DHT22;9234;49.344;11.120;2022-10-22T07:36:32;13.60;99.90
18218;DHT22;9234;49.344;11.120;2022-10-22T07:39:01;13.70;99.90
18218;DHT22;9234;49.344;11.120;2022-10-22T07:41:30;13.80;99.90
18218;DHT22;9234;49.344;11.120;2022-10-22T07:43:58;13.80;99.90
18218;DHT22;9234;49.344;11.120;2022-10-22T07:46:27;13.90;99.90
18218;DHT22;9234;49.344;11.120;2022-10-22T07:48:56;13.90;99.90
18218;DHT22;9234;49.344;11.120;2022-10-22T07:51:24;14.00;99.90
18218;DHT22;9234;49.344;11.120;2022-10-22T07:53:53;14.10;99.90
18218;DHT22;9234;49.344;11.120;2022-10-22T07:56:21;14.20;99.90
18218;DHT22;9234;49.344;11.120;2022-10-22T07:58:49;14.20;99.90
18218;DHT22;9234;49.344;11.120;2022-10-22T08:01:17;14.30;99.90
18218;DHT22;9234;49.344;11.120;2022-10-22T08:03:46;14.30;99.90
18218;DHT22;9234;49.344;11.120;2022-10-22T08:06:16;14.40;99.90
18218;DHT22;9234;49.344;11.120;2022-10-22T08:08:44;14.40;99.90
18218;DHT22;9234;49.344;11.120;2022-10-22T08:11:13;14.50;99.90
18218;DHT22;9234;49.344;11.120;2022-10-22T08:13:41;14.50;99.90
18218;DHT22;9234;49.344;11.120;2022-10-22T08:16:12;14.60;99.90
18218;DHT22;9234;49.344;11.120;2022-10-22T08:18:41;14.70;99.90
18218;DHT22;9234;49.344;11.120;2022-10-22T08:21:09;14.70;99.90
18218;DHT22;9234;49.344;11.120;2022-10-22T08:23:39;14.70;99.90
18218;DHT22;9234;49.344;11.120;2022-10-22T08:26:08;14.80;99.90
18218;DHT22;9234;49.344;11.120;2022-10-22T08:28:36;14.80;99.90
18218;DHT22;9234;49.344;11.120;2022-10-22T08:31:05;14.80;99.90
18218;DHT22;9234;49.344;11.120;2022-10-22T08:33:35;14.80;99.90
18218;DHT22;9234;49.344;11.120;2022-10-22T08:36:05;14.80;99.90
18218;DHT22;9234;49.344;11.120;2022-10-22T08:38:34;14.80;99.90
18218;DHT22;9234;49.344;11.120;2022-10-22T08:41:09;14.70;99.90
18218;DHT22;9234;49.344;11.120;2022-10-22T08:44:19;14.80;99.90
18218;DHT22;9234;49.344;11.120;2022-10-22T08:47:20;14.70;99.90
18218;DHT22;9234;49.344;11.120;2022-10-22T08:50:04;14.70;99.90
18218;DHT22;9234;49.344;11.120;2022-10-22T08:52:37;14.70;99.90
18218;DHT22;9234;49.344;11.120;2022-10-22T08:55:12;14.70;99.90
18218;DHT22;9234;49.344;11.120;2022-10-22T08:57:50;14.70;99.90
18218;DHT22;9234;49.344;11.120;2022-10-22T09:00:31;14.80;99.90
18218;DHT22;9234;49.344;11.120;2022-10-22T09:03:24;14.80;99.90
18218;DHT22;9234;49.344;11.120;2022-10-22T09:06:08;14.80;99.90
18218;DHT22;9234;49.344;11.120;2022-10-22T09:08:38;14.90;99.90
18218;DHT22;9234;49.344;11.120;2022-10-22T09:11:17;15.00;99.90
18218;DHT22;9234;49.344;11.120;2022-10-22T09:13:53;15.10;99.90
18218;DHT22;9234;49.344;11.120;2022-10-22T09:16:30;15.20;99.90
18218;DHT22;9234;49.344;11.120;2022-10-22T09:19:12;15.20;99.90
18218;DHT22;9234;49.344;11.120;2022-10-22T09:21:53;15.20;99.90
18218;DHT22;9234;49.344;11.120;2022-10-22T09:24:32;15.30;99.90
18218;DHT22;9234;49.344;11.120;2022-10-22T09:27:10;15.30;99.90
18218;DHT22;9234;49.344;11.120;2022-10-22T09:29:43;15.40;99.90
18218;DHT22;9234;49.344;11.120;2022-10-22T09:32:14;15.50;99.90
18218;DHT22;9234;49.344;11.120;2022-10-22T09:34:43;15.70;99.90
18218;DHT22;9234;49.344;11.120;2022-10-22T09:37:15;15.80;99.90
18218;DHT22;9234;49.344;11.120;2022-10-22T09:39:48;16.00;99.90
18218;DHT22;9234;49.344;11.120;2022-10-22T09:42:20;16.10;99.90
18218;DHT22;9234;49.344;11.120;2022-10-22T09:44:52;16.30;99.90
18218;DHT22;9234;49.344;11.120;2022-10-22T09:47:32;16.40;99.90
18218;DHT22;9234;49.344;11.120;2022-10-22T09:50:26;16.60;99.90
18218;DHT22;9234;49.344;11.120;2022-10-22T09:53:03;16.70;99.90
18218;DHT22;9234;49.344;11.120;2022-10-22T09:55:39;16.80;99.90
18218;DHT22;9234;49.344;11.120;2022-10-22T09:58:11;17.00;99.90
18218;DHT22;9234;49.344;11.120;2022-10-22T10:00:44;17.20;99.90
18218;DHT22;9234;49.344;11.120;2022-10-22T10:03:18;17.20;99.90
18218;DHT22;9234;49.344;11.120;2022-10-22T10:05:51;17.30;99.90
18218;DHT22;9234;49.344;11.120;2022-10-22T10:08:21;17.20;99.90
18218;DHT22;9234;49.344;11.120;2022-10-22T10:10:52;17.20;99.90
18218;DHT22;9234;49.344;11.120;2022-10-22T10:13:41;17.20;99.90
18218;DHT22;9234;49.344;11.120;2022-10-22T10:16:35;17.30;99.90
18218;DHT22;9234;49.344;11.120;2022-10-22T10:22:17;17.50;99.90
18218;DHT22;9234;49.344;11.120;2022-10-22T10:25:05;17.50;99.90
18218;DHT22;9234;49.344;11.120;2022-10-22T10:27:57;17.70;99.90
18218;DHT22;9234;49.344;11.120;2022-10-22T10:30:31;17.80;99.90
18218;DHT22;9234;49.344;11.120;2022-10-22T10:33:18;17.90;99.90
18218;DHT22;9234;49.344;11.120;2022-10-22T10:36:00;17.90;99.90
18218;DHT22;9234;49.344;11.120;2022-10-22T10:38:41;18.00;99.90
18218;DHT22;9234;49.344;11.120;2022-10-22T10:41:25;18.10;99.90
18218;DHT22;9234;49.344;11.120;2022-10-22T10:44:15;18.20;99.90
18218;DHT22;9234;49.344;11.120;2022-10-22T10:47:01;18.40;99.90
18218;DHT22;9234;49.344;11.120;2022-10-22T10:49:42;18.60;99.90
18218;DHT22;9234;49.344;11.120;2022-10-22T10:52:16;18.90;99.90
18218;DHT22;9234;49.344;11.120;2022-10-22T10:54:58;19.10;99.90
18218;DHT22;9234;49.344;11.120;2022-10-22T10:57:40;19.20;99.90
18218;DHT22;9234;49.344;11.120;2022-10-22T11:00:18;19.40;99.90
18218;DHT22;9234;49.344;11.120;2022-10-22T11:03:13;19.50;99.90
18218;DHT22;9234;49.344;11.120;2022-10-22T11:05:59;19.70;99.90
18218;DHT22;9234;49.344;11.120;2022-10-22T11:08:31;19.70;99.90
18218;DHT22;9234;49.344;11.120;2022-10-22T11:11:06;19.70;99.90
18218;DHT22;9234;49.344;11.120;2022-10-22T11:13:43;19.60;99.90
18218;DHT22;9234;49.344;11.120;2022-10-22T11:16:21;19.60;99.90
18218;DHT22;9234;49.344;11.120;2022-10-22T11:18:59;19.50;99.90
18218;DHT22;9234;49.344;11.120;2022-10-22T11:21:36;19.50;99.90
18218;DHT22;9234;49.344;11.120;2022-10-22T11:24:11;19.50;99.90
18218;DHT22;9234;49.344;11.120;2022-10-22T11:26:50;19.70;99.90
18218;DHT22;9234;49.344;11.120;2022-10-22T11:29:26;19.80;99.90
18218;DHT22;9234;49.344;11.120;2022-10-22T11:32:02;20.10;99.90
18218;DHT22;9234;49.344;11.120;2022-10-22T11:34:34;20.20;99.90
18218;DHT22;9234;49.344;11.120;2022-10-22T11:37:11;20.40;99.90
18218;DHT22;9234;49.344;11.120;2022-10-22T11:39:44;20.60;99.90
18218;DHT22;9234;49.344;11.120;2022-10-22T11:42:18;20.80;99.90
18218;DHT22;9234;49.344;11.120;2022-10-22T11:44:58;21.00;99.90
18218;DHT22;9234;49.344;11.120;2022-10-22T11:47:31;21.30;99.90
18218;DHT22;9234;49.344;11.120;2022-10-22T11:50:17;21.40;99.90
18218;DHT22;9234;49.344;11.120;2022-10-22T11:52:54;21.50;99.90
18218;DHT22;9234;49.344;11.120;2022-10-22T11:55:43;21.60;99.90
18218;DHT22;9234;49.344;11.120;2022-10-22T11:58:33;21.40;99.90
18218;DHT22;9234;49.344;11.120;2022-10-22T12:01:24;21.30;99.90
18218;DHT22;9234;49.344;11.120;2022-10-22T12:04:22;21.30;99.90
18218;DHT22;9234;49.344;11.120;2022-10-22T12:07:30;21.40;99.90
18218;DHT22;9234;49.344;11.120;2022-10-22T12:10:15;21.40;99.90
18218;DHT22;9234;49.344;11.120;2022-10-22T12:12:52;21.60;99.90
18218;DHT22;9234;49.344;11.120;2022-10-22T12:15:26;21.60;99.90
18218;DHT22;9234;49.344;11.120;2022-10-22T12:17:59;21.50;99.90
18218;DHT22;9234;49.344;11.120;2022-10-22T12:20:29;21.40;99.90
18218;DHT22;9234;49.344;11.120;2022-10-22T12:22:58;21.30;99.90
18218;DHT22;9234;49.344;11.120;2022-10-22T12:25:30;21.10;99.90
18218;DHT22;9234;49.344;11.120;2022-10-22T12:28:01;21.00;99.90
18218;DHT22;9234;49.344;11.120;2022-10-22T12:30:31;20.90;99.90
18218;DHT22;9234;49.344;11.120;2022-10-22T12:33:03;20.80;99.90
18218;DHT22;9234;49.344;11.120;2022-10-22T12:35:34;20.80;99.90
18218;DHT22;9234;49.344;11.120;2022-10-22T12:38:13;20.90;99.90
18218;DHT22;9234;49.344;11.120;2022-10-22T12:40:44;21.30;99.90
18218;DHT22;9234;49.344;11.120;2022-10-22T12:43:16;21.60;99.90
18218;DHT22;9234;49.344;11.120;2022-10-22T12:45:47;21.70;99.90
18218;DHT22;9234;49.344;11.120;2022-10-22T12:48:19;21.80;99.90
18218;DHT22;9234;49.344;11.120;2022-10-22T12:50:52;21.70;99.90
18218;DHT22;9234;49.344;11.120;2022-10-22T12:53:25;21.70;99.90
18218;DHT22;9234;49.344;11.120;2022-10-22T12:56:00;21.50;99.90
18218;DHT22;9234;49.344;11.120;2022-10-22T12:58:37;21.30;99.90
18218;DHT22;9234;49.344;11.120;2022-10-22T13:01:09;21.00;99.90
18218;DHT22;9234;49.344;11.120;2022-10-22T13:03:40;20.80;99.90
18218;DHT22;9234;49.344;11.120;2022-10-22T13:06:21;20.70;99.90
18218;DHT22;9234;49.344;11.120;2022-10-22T13:08:57;20.80;99.90
18218;DHT22;9234;49.344;11.120;2022-10-22T13:11:38;21.00;99.90
18218;DHT22;9234;49.344;11.120;2022-10-22T13:14:19;21.10;99.90
18218;DHT22;9234;49.344;11.120;2022-10-22T13:17:04;21.20;99.90
18218;DHT22;9234;49.344;11.120;2022-10-22T13:19:40;21.20;99.90
18218;DHT22;9234;49.344;11.120;2022-10-22T13:22:31;21.20;99.90
18218;DHT22;9234;49.344;11.120;2022-10-22T13:25:17;21.10;99.90
18218;DHT22;9234;49.344;11.120;2022-10-22T13:27:52;21.00;99.90
18218;DHT22;9234;49.344;11.120;2022-10-22T13:30:24;21.00;99.90
18218;DHT22;9234;49.344;11.120;2022-10-22T13:32:56;20.90;99.90
18218;DHT22;9234;49.344;11.120;2022-10-22T13:35:28;21.00;99.90
18218;DHT22;9234;49.344;11.120;2022-10-22T13:37:59;21.20;99.90
18218;DHT22;9234;49.344;11.120;2022-10-22T13:40:28;21.30;99.90
18218;DHT22;9234;49.344;11.120;2022-10-22T13:42:57;21.40;99.90
18218;DHT22;9234;49.344;11.120;2022-10-22T13:45:26;21.50;99.90
18218;DHT22;9234;49.344;11.120;2022-10-22T13:47:54;21.60;99.90
18218;DHT22;9234;49.344;11.120;2022-10-22T13:50:23;21.70;99.90
18218;DHT22;9234;49.344;11.120;2022-10-22T13:52:53;21.80;99.90
18218;DHT22;9234;49.344;11.120;2022-10-22T13:55:24;21.80;99.90
18218;DHT22;9234;49.344;11.120;2022-10-22T13:57:55;21.80;99.90
18218;DHT22;9234;49.344;11.120;2022-10-22T14:00:28;21.80;99.90
18218;DHT22;9234;49.344;11.120;2022-10-22T14:02:57;21.90;99.90
18218;DHT22;9234;49.344;11.120;2022-10-22T14:05:26;21.90;99.90
18218;DHT22;9234;49.344;11.120;2022-10-22T14:07:56;21.90;99.90
18218;DHT22;9234;49.344;11.120;2022-10-22T14:10:26;21.90;99.90
18218;DHT22;9234;49.344;11.120;2022-10-22T14:12:54;21.90;99.90
18218;DHT22;9234;49.344;11.120;2022-10-22T14:15:27;21.90;99.80
18218;DHT22;9234;49.344;11.120;2022-10-22T14:17:58;21.70;99.70
18218;DHT22;9234;49.344;11.120;2022-10-22T14:20:29;21.50;99.90
18218;DHT22;9234;49.344;11.120;2022-10-22T14:23:02;21.40;99.90
18218;DHT22;9234;49.344;11.120;2022-10-22T14:25:40;21.30;99.90
18218;DHT22;9234;49.344;11.120;2022-10-22T14:28:09;21.20;99.90
18218;DHT22;9234;49.344;11.120;2022-10-22T14:30:40;21.00;99.90
18218;DHT22;9234;49.344;11.120;2022-10-22T14:33:12;20.90;99.90
18218;DHT22;9234;49.344;11.120;2022-10-22T14:35:43;20.80;99.90
18218;DHT22;9234;49.344;11.120;2022-10-22T14:38:11;20.60;99.90
18218;DHT22;9234;49.344;11.120;2022-10-22T14:40:40;20.50;99.90
18218;DHT22;9234;49.344;11.120;2022-10-22T14:43:10;20.40;99.90
18218;DHT22;9234;49.344;11.120;2022-10-22T14:45:42;20.30;99.90
18218;DHT22;9234;49.344;11.120;2022-10-22T14:48:10;20.20;99.90
18218;DHT22;9234;49.344;11.120;2022-10-22T14:50:38;20.20;99.90
18218;DHT22;9234;49.344;11.120;2022-10-22T14:53:07;20.40;99.90
18218;DHT22;9234;49.344;11.120;2022-10-22T14:55:35;20.80;99.90
18218;DHT22;9234;49.344;11.120;2022-10-22T14:58:04;21.30;99.90
18218;DHT22;9234;49.344;11.120;2022-10-22T15:00:32;21.70;99.90
18218;DHT22;9234;49.344;11.120;2022-10-22T15:03:04;21.80;99.90
18218;DHT22;9234;49.344;11.120;2022-10-22T15:05:32;21.70;99.40
18218;DHT22;9234;49.344;11.120;2022-10-22T15:08:01;21.50;99.40
18218;DHT22;9234;49.344;11.120;2022-10-22T15:10:30;21.20;99.70
18218;DHT22;9234;49.344;11.120;2022-10-22T15:12:58;21.00;99.90
18218;DHT22;9234;49.344;11.120;2022-10-22T15:15:26;20.70;99.90
18218;DHT22;9234;49.344;11.120;2022-10-22T15:18:04;20.60;99.90
18218;DHT22;9234;49.344;11.120;2022-10-22T15:20:33;20.40;99.90
18218;DHT22;9234;49.344;11.120;2022-10-22T15:23:01;20.20;99.90
18218;DHT22;9234;49.344;11.120;2022-10-22T15:25:29;20.00;99.90
18218;DHT22;9234;49.344;11.120;2022-10-22T15:27:58;19.90;99.90
18218;DHT22;9234;49.344;11.120;2022-10-22T15:30:34;19.80;99.90
18218;DHT22;9234;49.344;11.120;2022-10-22T15:33:03;19.70;99.90
18218;DHT22;9234;49.344;11.120;2022-10-22T15:35:32;19.50;99.90
18218;DHT22;9234;49.344;11.120;2022-10-22T15:38:01;19.50;99.90
18218;DHT22;9234;49.344;11.120;2022-10-22T15:40:32;19.40;99.90
18218;DHT22;9234;49.344;11.120;2022-10-22T15:43:00;19.30;99.90
18218;DHT22;9234;49.344;11.120;2022-10-22T15:45:28;19.20;99.90
18218;DHT22;9234;49.344;11.120;2022-10-22T15:47:56;19.10;99.90
18218;DHT22;9234;49.344;11.120;2022-10-22T15:50:26;19.00;99.90
18218;DHT22;9234;49.344;11.120;2022-10-22T15:52:55;18.80;99.90
18218;DHT22;9234;49.344;11.120;2022-10-22T15:55:24;18.70;99.90
18218;DHT22;9234;49.344;11.120;2022-10-22T15:57:55;18.60;99.90
18218;DHT22;9234;49.344;11.120;2022-10-22T16:00:27;18.40;99.90
18218;DHT22;9234;49.344;11.120;2022-10-22T16:02:56;18.20;99.90
18218;DHT22;9234;49.344;11.120;2022-10-22T16:05:27;18.10;99.90
18218;DHT22;9234;49.344;11.120;2022-10-22T16:07:55;17.90;99.90